createdAt,value
2022-08-27T00:01:13.490Z,76.50
2022-08-27T00:03:39.915Z,76.40
2022-08-27T00:06:06.390Z,76.60
2022-08-27T00:08:33.323Z,77.90
2022-08-27T00:10:59.822Z,76.40
2022-08-27T00:13:26.277Z,76.40
2022-08-27T00:15:52.721Z,76.30
2022-08-27T00:18:22.559Z,76.30
2022-08-27T00:20:49.270Z,76.50
2022-08-27T00:23:15.704Z,76.40
2022-08-27T00:25:42.140Z,76.50
2022-08-27T00:28:08.683Z,76.60
2022-08-27T00:30:35.188Z,76.80
2022-08-27T00:33:01.656Z,76.70
2022-08-27T00:35:28.144Z,76.40
2022-08-27T00:37:54.590Z,76.40
2022-08-27T00:40:21.129Z,76.40
2022-08-27T00:42:47.639Z,76.40
2022-08-27T00:45:14.121Z,77.30
2022-08-27T00:47:40.604Z,76.90
2022-08-27T00:50:07.034Z,77.40
2022-08-27T00:52:33.493Z,76.50
2022-08-27T00:54:59.941Z,77.30
2022-08-27T00:57:26.384Z,76.50
2022-08-27T00:59:52.825Z,76.60
2022-08-27T01:02:19.389Z,76.40
2022-08-27T01:04:45.898Z,76.40
2022-08-27T01:07:12.354Z,76.40
2022-08-27T01:09:38.847Z,76.40
2022-08-27T01:12:05.301Z,76.40
2022-08-27T01:14:31.735Z,77.10
2022-08-27T01:16:58.196Z,76.50
2022-08-27T01:19:24.629Z,76.70
2022-08-27T01:21:51.063Z,76.40
2022-08-27T01:24:17.516Z,76.40
2022-08-27T01:26:43.978Z,76.40
2022-08-27T01:29:10.484Z,76.40
2022-08-27T01:31:37.000Z,76.40
2022-08-27T01:34:03.489Z,76.80
2022-08-27T01:36:29.971Z,76.80
2022-08-27T01:38:56.400Z,76.40
2022-08-27T01:41:24.044Z,76.40
2022-08-27T01:43:50.540Z,75.70
2022-08-27T01:46:17.073Z,76.40
2022-08-27T01:48:43.526Z,76.60
2022-08-27T01:51:09.986Z,76.80
2022-08-27T01:53:36.437Z,76.50
2022-08-27T01:56:02.883Z,76.30
2022-08-27T01:58:29.348Z,76.30
2022-08-27T02:00:56.259Z,76.40
2022-08-27T02:03:23.162Z,76.50
2022-08-27T02:05:49.592Z,76.50
2022-08-27T02:08:16.076Z,76.50
2022-08-27T02:10:42.526Z,76.60
2022-08-27T02:13:09.005Z,76.60
2022-08-27T02:15:35.427Z,76.40
2022-08-27T02:18:01.892Z,76.30
2022-08-27T02:20:29.410Z,76.40
2022-08-27T02:22:55.986Z,76.30
2022-08-27T02:25:22.439Z,76.40
2022-08-27T02:27:48.885Z,77.10
2022-08-27T02:30:15.404Z,77.00
2022-08-27T02:32:41.860Z,76.60
2022-08-27T02:35:08.302Z,76.90
2022-08-27T02:37:34.739Z,76.60
2022-08-27T02:40:01.230Z,76.40
2022-08-27T02:42:27.736Z,77.30
2022-08-27T02:44:54.165Z,76.40
2022-08-27T02:47:20.630Z,76.40
2022-08-27T02:49:47.059Z,76.40
2022-08-27T02:52:13.525Z,76.90
2022-08-27T02:54:40.725Z,76.70
2022-08-27T02:57:07.185Z,76.40
2022-08-27T02:59:33.632Z,76.40
2022-08-27T03:02:00.229Z,76.50
2022-08-27T03:04:26.795Z,76.40
2022-08-27T03:06:53.235Z,76.30
2022-08-27T03:09:19.675Z,76.50
2022-08-27T03:11:46.128Z,76.20
2022-08-27T03:14:12.574Z,76.60
2022-08-27T03:16:39.028Z,77.30
2022-08-27T03:19:05.480Z,76.30
2022-08-27T03:21:31.923Z,76.30
2022-08-27T03:23:58.387Z,76.80
2022-08-27T03:26:36.087Z,77.90
2022-08-27T03:29:02.615Z,76.50
2022-08-27T03:31:29.079Z,76.70
2022-08-27T03:33:55.577Z,76.20
2022-08-27T03:36:22.008Z,76.30
2022-08-27T03:38:48.468Z,76.50
2022-08-27T03:41:14.915Z,76.20
2022-08-27T03:43:41.383Z,76.50
2022-08-27T03:46:10.713Z,75.40
2022-08-27T03:48:48.170Z,76.20
2022-08-27T03:51:18.677Z,77.50
2022-08-27T03:53:45.108Z,75.50
2022-08-27T03:56:20.593Z,76.40
2022-08-27T03:58:57.501Z,76.60
2022-08-27T04:01:29.495Z,77.20
2022-08-27T04:03:55.985Z,76.80
2022-08-27T04:06:22.439Z,76.60
2022-08-27T04:08:48.892Z,76.90
2022-08-27T04:11:16.473Z,76.20
2022-08-27T04:13:42.949Z,76.60
2022-08-27T04:16:09.430Z,76.80
2022-08-27T04:18:36.003Z,76.60
2022-08-27T04:21:02.435Z,76.20
2022-08-27T04:23:28.911Z,76.20
2022-08-27T04:25:55.361Z,76.20
2022-08-27T04:28:21.804Z,76.50
2022-08-27T04:30:48.318Z,76.40
2022-08-27T04:33:14.837Z,77.10
2022-08-27T04:35:41.377Z,76.00
2022-08-27T04:38:07.899Z,76.40
2022-08-27T04:40:34.444Z,76.20
2022-08-27T04:43:00.970Z,76.70
2022-08-27T04:45:27.457Z,77.00
2022-08-27T04:47:54.161Z,76.50
2022-08-27T04:50:20.616Z,76.00
2022-08-27T04:52:47.063Z,76.20
2022-08-27T04:55:14.286Z,76.50
2022-08-27T04:57:40.812Z,76.60
2022-08-27T05:00:07.279Z,78.20
2022-08-27T05:02:33.763Z,77.30
2022-08-27T05:05:00.261Z,76.90
2022-08-27T05:07:26.869Z,76.40
2022-08-27T05:09:53.397Z,76.30
2022-08-27T05:12:19.891Z,76.00
2022-08-27T05:14:46.367Z,76.90
2022-08-27T05:17:12.879Z,76.40
2022-08-27T05:19:39.390Z,77.30
2022-08-27T05:22:05.862Z,78.50
2022-08-27T05:24:32.326Z,76.60
2022-08-27T05:26:58.785Z,76.20
2022-08-27T05:29:25.248Z,76.40
2022-08-27T05:31:51.763Z,76.40
2022-08-27T05:34:25.403Z,76.30
2022-08-27T05:36:54.098Z,75.00
2022-08-27T05:39:20.549Z,76.20
2022-08-27T05:41:47.230Z,76.20
2022-08-27T05:44:39.771Z,76.20
2022-08-27T05:47:00.124Z,76.40
2022-08-27T05:49:26.589Z,76.60
2022-08-27T05:51:53.094Z,77.80
2022-08-27T05:54:19.950Z,76.80
2022-08-27T05:56:46.586Z,76.50
2022-08-27T05:59:13.095Z,76.70
2022-08-27T06:01:39.583Z,77.10
2022-08-27T06:04:06.086Z,76.80
2022-08-27T06:06:32.562Z,76.20
2022-08-27T06:08:59.045Z,76.30
2022-08-27T06:11:25.485Z,76.30
2022-08-27T06:13:51.952Z,76.20
2022-08-27T06:16:18.481Z,76.30
2022-08-27T06:18:44.973Z,76.50
2022-08-27T06:21:11.439Z,76.20
2022-08-27T06:23:37.913Z,76.20
2022-08-27T06:26:04.367Z,76.40
2022-08-27T06:28:30.816Z,76.20
2022-08-27T06:30:57.302Z,76.50
2022-08-27T06:33:23.871Z,76.70
2022-08-27T06:35:50.323Z,76.60
2022-08-27T06:38:16.773Z,77.30
2022-08-27T06:40:43.235Z,77.20
2022-08-27T06:43:09.702Z,78.10
2022-08-27T06:45:36.135Z,76.90
2022-08-27T06:48:02.651Z,77.50
2022-08-27T06:50:29.125Z,76.30
2022-08-27T06:52:55.604Z,76.30
2022-08-27T06:55:22.136Z,76.90
2022-08-27T06:57:48.603Z,78.40
2022-08-27T07:00:15.119Z,77.00
2022-08-27T07:02:41.641Z,77.70
2022-08-27T07:05:08.140Z,77.40
2022-08-27T07:07:41.973Z,77.50
2022-08-27T07:10:10.854Z,77.10
2022-08-27T07:12:37.321Z,76.80
2022-08-27T07:15:03.815Z,77.50
2022-08-27T07:17:31.288Z,76.50
2022-08-27T07:19:57.811Z,76.60
2022-08-27T07:22:24.296Z,76.90
2022-08-27T07:24:50.796Z,77.40
2022-08-27T07:27:17.240Z,77.30
2022-08-27T07:29:43.696Z,76.60
2022-08-27T07:32:10.180Z,76.40
2022-08-27T07:34:36.667Z,76.30
2022-08-27T07:37:03.125Z,77.20
2022-08-27T07:39:29.575Z,77.00
2022-08-27T07:41:56.020Z,76.60
2022-08-27T07:44:26.230Z,76.30
2022-08-27T07:46:54.632Z,76.20
2022-08-27T07:49:21.112Z,76.40
2022-08-27T07:51:47.551Z,76.20
2022-08-27T07:54:14.004Z,76.60
2022-08-27T07:56:40.466Z,76.40
2022-08-27T07:59:06.903Z,76.70
2022-08-27T08:01:33.580Z,76.50
2022-08-27T08:04:00.113Z,78.00
2022-08-27T08:06:26.566Z,78.70
2022-08-27T08:08:53.040Z,76.40
2022-08-27T08:11:19.508Z,76.40
2022-08-27T08:13:45.953Z,76.70
2022-08-27T08:16:12.427Z,76.50
2022-08-27T08:18:38.876Z,76.40
2022-08-27T08:21:05.366Z,76.20
2022-08-27T08:23:31.814Z,76.20
2022-08-27T08:25:58.291Z,76.20
2022-08-27T08:28:24.758Z,76.20
2022-08-27T08:30:51.274Z,76.40
2022-08-27T08:33:17.761Z,76.40
2022-08-27T08:35:44.218Z,76.40
2022-08-27T08:38:10.799Z,76.30
2022-08-27T08:40:37.391Z,76.30
2022-08-27T08:43:03.878Z,76.30
2022-08-27T08:45:30.351Z,76.50
2022-08-27T08:47:56.838Z,76.30
2022-08-27T08:50:23.329Z,76.80
2022-08-27T08:52:49.805Z,76.50
2022-08-27T08:55:16.275Z,77.00
2022-08-27T08:57:42.725Z,77.10
2022-08-27T09:00:09.217Z,76.70
2022-08-27T09:02:35.665Z,76.30
2022-08-27T09:05:02.112Z,76.30
2022-08-27T09:07:28.539Z,76.20
2022-08-27T09:09:55.005Z,76.20
2022-08-27T09:12:21.453Z,76.60
2022-08-27T09:14:51.084Z,76.70
2022-08-27T09:17:17.533Z,76.40
2022-08-27T09:19:44.012Z,76.50
2022-08-27T09:22:10.464Z,76.30
2022-08-27T09:24:36.928Z,76.30
2022-08-27T09:27:03.408Z,76.30
2022-08-27T09:29:29.845Z,76.30
2022-08-27T09:31:56.280Z,76.50
2022-08-27T09:34:22.755Z,76.20
2022-08-27T09:36:49.218Z,76.30
2022-08-27T09:39:16.722Z,76.30
2022-08-27T09:41:43.193Z,76.30
2022-08-27T09:44:09.661Z,76.70
2022-08-27T09:46:36.135Z,76.40
2022-08-27T09:49:02.645Z,76.70
2022-08-27T09:51:29.110Z,76.70
2022-08-27T09:53:55.563Z,78.70
2022-08-27T09:56:22.049Z,76.20
2022-08-27T09:58:48.509Z,77.30
2022-08-27T10:01:15.063Z,76.30
2022-08-27T10:03:41.664Z,76.40
2022-08-27T10:06:08.154Z,77.80
2022-08-27T10:08:34.820Z,77.70
2022-08-27T10:11:01.337Z,76.30
2022-08-27T10:13:27.792Z,76.70
2022-08-27T10:15:54.264Z,77.10
2022-08-27T10:18:20.723Z,76.40
2022-08-27T10:20:47.161Z,76.20
2022-08-27T10:23:13.625Z,76.20
2022-08-27T10:25:40.082Z,76.70
2022-08-27T10:28:06.526Z,76.40
2022-08-27T10:30:32.970Z,76.20
2022-08-27T10:32:59.406Z,76.10
2022-08-27T10:35:30.519Z,76.20
2022-08-27T10:37:57.040Z,76.10
2022-08-27T10:40:23.577Z,76.10
2022-08-27T10:42:50.074Z,76.10
2022-08-27T10:45:31.114Z,76.20
2022-08-27T10:47:58.047Z,76.10
2022-08-27T10:50:27.525Z,76.20
2022-08-27T10:52:53.982Z,76.10
2022-08-27T10:55:20.443Z,76.50
2022-08-27T10:57:56.738Z,77.00
2022-08-27T11:00:26.715Z,76.20
2022-08-27T11:02:53.201Z,76.30
2022-08-27T11:05:19.822Z,76.40
2022-08-27T11:07:46.297Z,76.10
2022-08-27T11:10:12.774Z,76.40
2022-08-27T11:12:39.236Z,76.70
2022-08-27T11:15:08.858Z,76.70
2022-08-27T11:17:39.155Z,76.90
2022-08-27T11:20:05.628Z,76.10
2022-08-27T11:22:32.110Z,76.60
2022-08-27T11:24:58.593Z,76.10
2022-08-27T11:27:25.027Z,76.50
2022-08-27T11:29:51.478Z,76.20
2022-08-27T11:32:26.433Z,76.40
2022-08-27T11:34:52.914Z,76.00
2022-08-27T11:37:19.347Z,76.20
2022-08-27T11:39:49.780Z,76.40
2022-08-27T11:42:18.109Z,76.30
2022-08-27T11:44:44.583Z,76.10
2022-08-27T11:47:11.124Z,76.20
2022-08-27T11:49:37.642Z,76.20
2022-08-27T11:52:04.089Z,76.50
2022-08-27T11:54:30.544Z,76.40
2022-08-27T11:56:56.997Z,76.20
2022-08-27T11:59:23.483Z,76.20
2022-08-27T12:01:49.947Z,76.60
2022-08-27T12:04:16.461Z,76.40
2022-08-27T12:06:42.970Z,76.40
2022-08-27T12:09:09.404Z,76.40
2022-08-27T12:11:35.877Z,76.40
2022-08-27T12:14:02.302Z,76.60
2022-08-27T12:16:28.806Z,77.00
2022-08-27T12:18:55.265Z,76.60
2022-08-27T12:21:21.745Z,76.30
2022-08-27T12:23:49.036Z,77.20
2022-08-27T12:26:15.497Z,76.30
2022-08-27T12:28:41.948Z,76.80
2022-08-27T12:31:08.430Z,76.40
2022-08-27T12:33:34.895Z,76.60
2022-08-27T12:36:01.396Z,77.50
2022-08-27T12:38:28.893Z,76.90
2022-08-27T12:40:55.373Z,76.80
2022-08-27T12:43:21.854Z,77.10
2022-08-27T12:45:48.305Z,78.00
2022-08-27T12:48:14.743Z,78.40
2022-08-27T12:50:41.211Z,77.20
2022-08-27T12:53:07.644Z,77.00
2022-08-27T12:55:34.115Z,77.30
2022-08-27T13:00:36.032Z,76.60
2022-08-27T13:03:02.603Z,76.60
2022-08-27T13:05:29.096Z,76.80
2022-08-27T13:07:55.538Z,76.80
2022-08-27T13:10:22.003Z,76.70
2022-08-27T13:12:48.448Z,76.70
2022-08-27T13:15:15.788Z,76.70
2022-08-27T13:17:42.611Z,76.70
2022-08-27T13:20:09.116Z,76.80
2022-08-27T13:22:35.555Z,77.00
2022-08-27T13:25:04.565Z,77.00
2022-08-27T13:27:31.071Z,78.70
2022-08-27T13:29:57.556Z,76.00
2022-08-27T13:32:24.030Z,77.30
2022-08-27T13:34:50.506Z,78.40
2022-08-27T13:37:16.968Z,77.90
2022-08-27T13:39:43.442Z,77.50
2022-08-27T13:42:09.975Z,77.20
2022-08-27T13:44:36.464Z,77.20
2022-08-27T13:47:03.397Z,78.40
2022-08-27T13:49:29.955Z,75.80
2022-08-27T13:51:56.471Z,77.80
2022-08-27T13:54:23.028Z,78.50
2022-08-27T13:59:31.387Z,76.50
2022-08-27T14:01:57.910Z,76.40
2022-08-27T14:04:24.464Z,76.40
2022-08-27T14:06:50.916Z,76.60
2022-08-27T14:09:17.375Z,76.40
2022-08-27T14:11:43.818Z,76.90
2022-08-27T14:14:10.254Z,76.40
2022-08-27T14:16:36.708Z,76.70
2022-08-27T14:19:03.153Z,76.40
2022-08-27T14:21:29.619Z,76.40
2022-08-27T14:23:56.044Z,76.40
2022-08-27T14:26:22.590Z,76.50
2022-08-27T14:28:49.010Z,76.40
2022-08-27T14:31:15.501Z,76.50
2022-08-27T14:33:41.973Z,76.40
2022-08-27T14:36:08.414Z,76.40
2022-08-27T14:38:34.843Z,76.40
2022-08-27T14:41:01.302Z,76.40
2022-08-27T14:43:27.749Z,76.40
2022-08-27T14:45:54.195Z,76.40
2022-08-27T14:48:20.649Z,76.40
2022-08-27T14:50:55.046Z,76.30
2022-08-27T14:53:21.467Z,76.30
2022-08-27T14:55:52.092Z,76.50
2022-08-27T14:58:18.751Z,76.40
2022-08-27T15:00:45.206Z,76.40
2022-08-27T15:03:11.646Z,76.30
2022-08-27T15:05:38.105Z,76.40
2022-08-27T15:08:04.646Z,76.30
2022-08-27T15:10:31.120Z,76.30
2022-08-27T15:12:57.560Z,76.30
2022-08-27T15:15:23.987Z,76.30
2022-08-27T15:17:50.465Z,76.40
2022-08-27T15:20:20.226Z,76.50
2022-08-27T15:22:47.065Z,77.30
2022-08-27T15:25:13.505Z,76.50
2022-08-27T15:27:39.939Z,76.50
2022-08-27T15:30:06.858Z,76.40
2022-08-27T15:32:33.322Z,76.30
2022-08-27T15:34:59.757Z,76.30
2022-08-27T15:37:26.248Z,76.40
2022-08-27T15:39:52.746Z,76.40
2022-08-27T15:42:19.240Z,76.50
2022-08-27T15:44:45.825Z,76.60
2022-08-27T15:47:15.351Z,76.50
2022-08-27T15:49:44.110Z,76.60
2022-08-27T15:52:10.603Z,76.40
2022-08-27T15:54:40.633Z,76.10
2022-08-27T15:57:07.090Z,76.40
2022-08-27T15:59:33.529Z,76.50
2022-08-27T16:02:01.054Z,76.50
2022-08-27T16:04:27.728Z,76.40
2022-08-27T16:06:54.182Z,76.50
2022-08-27T16:09:20.622Z,76.40
2022-08-27T16:11:47.075Z,76.30
2022-08-27T16:14:13.526Z,76.30
2022-08-27T16:16:40.006Z,76.20
2022-08-27T16:19:06.482Z,76.40
2022-08-27T16:21:32.937Z,76.70
2022-08-27T16:23:59.404Z,77.00
2022-08-27T16:26:25.856Z,76.30
2022-08-27T16:28:52.296Z,76.70
2022-08-27T16:31:18.798Z,76.40
2022-08-27T16:33:45.283Z,76.00
2022-08-27T16:36:11.743Z,76.20
2022-08-27T16:38:38.178Z,76.70
2022-08-27T16:41:04.635Z,76.30
2022-08-27T16:43:31.090Z,76.30
2022-08-27T16:45:57.563Z,76.40
2022-08-27T16:48:26.433Z,76.30
2022-08-27T16:50:52.872Z,76.60
2022-08-27T16:53:19.317Z,76.30
2022-08-27T16:55:45.764Z,76.60
2022-08-27T16:58:12.460Z,76.20
2022-08-27T17:00:39.069Z,76.30
2022-08-27T17:03:05.533Z,76.80
2022-08-27T17:05:34.136Z,76.60
2022-08-27T17:08:02.478Z,76.20
2022-08-27T17:10:29.279Z,76.70
2022-08-27T17:12:55.717Z,76.30
2022-08-27T17:15:22.180Z,76.50
2022-08-27T17:17:48.617Z,76.30
2022-08-27T17:20:15.252Z,76.10
2022-08-27T17:22:41.846Z,76.20
2022-08-27T17:25:08.291Z,76.30
2022-08-27T17:27:34.751Z,76.20
2022-08-27T17:30:01.197Z,76.20
2022-08-27T17:32:27.650Z,76.20
2022-08-27T17:34:54.093Z,76.10
2022-08-27T17:37:20.581Z,76.10
2022-08-27T17:39:47.030Z,76.30
2022-08-27T17:42:13.482Z,76.20
2022-08-27T17:44:39.916Z,76.10
2022-08-27T17:47:06.400Z,76.20
2022-08-27T17:49:32.936Z,76.30
2022-08-27T17:51:59.452Z,76.60
2022-08-27T17:54:25.875Z,78.20
2022-08-27T17:56:52.357Z,76.80
2022-08-27T17:59:18.903Z,76.00
2022-08-27T18:01:45.441Z,77.30
2022-08-27T18:04:12.238Z,76.40
2022-08-27T18:06:38.704Z,76.30
2022-08-27T18:09:05.146Z,76.30
2022-08-27T18:11:31.596Z,76.60
2022-08-27T18:14:01.519Z,76.70
2022-08-27T18:16:30.721Z,76.00
2022-08-27T18:18:57.205Z,76.10
2022-08-27T18:21:25.091Z,77.10
2022-08-27T18:23:52.335Z,76.50
2022-08-27T18:26:18.798Z,76.20
2022-08-27T18:28:45.276Z,76.50
2022-08-27T18:31:11.786Z,76.40
2022-08-27T18:33:38.304Z,76.40
2022-08-27T18:36:06.309Z,76.20
2022-08-27T18:38:32.857Z,76.90
2022-08-27T18:40:59.318Z,77.30
2022-08-27T18:43:26.099Z,75.80
2022-08-27T18:45:52.589Z,76.50
2022-08-27T18:48:19.082Z,77.30
2022-08-27T18:50:45.529Z,76.00
2022-08-27T18:53:12.018Z,76.20
2022-08-27T18:55:38.515Z,76.70
2022-08-27T18:58:05.084Z,78.30
2022-08-27T19:00:31.567Z,77.30
2022-08-27T19:02:58.036Z,76.70
2022-08-27T19:05:24.509Z,76.30
2022-08-27T19:07:51.021Z,77.60
2022-08-27T19:10:18.242Z,76.50
2022-08-27T19:12:44.768Z,78.40
2022-08-27T19:15:11.217Z,77.40
2022-08-27T19:17:37.708Z,76.50
2022-08-27T19:20:04.193Z,75.70
2022-08-27T19:22:30.716Z,74.80
2022-08-27T19:24:57.159Z,74.60
2022-08-27T19:27:25.032Z,74.40
2022-08-27T19:29:51.667Z,73.70
2022-08-27T19:32:18.123Z,73.30
2022-08-27T19:34:44.549Z,72.10
2022-08-27T19:37:10.990Z,71.40
2022-08-27T19:39:37.418Z,70.60
2022-08-27T19:42:03.868Z,70.50
2022-08-27T19:44:30.306Z,72.00
2022-08-27T19:46:56.773Z,72.20
2022-08-27T19:49:23.234Z,73.00
2022-08-27T19:51:49.683Z,68.50
2022-08-27T19:54:16.114Z,71.20
2022-08-27T19:56:42.550Z,70.40
2022-08-27T19:59:20.140Z,71.90
2022-08-27T20:01:47.959Z,71.40
2022-08-27T20:04:14.431Z,72.20
2022-08-27T20:06:40.968Z,71.40
2022-08-27T20:09:07.424Z,71.00
2022-08-27T20:11:33.987Z,70.50
2022-08-27T20:14:00.428Z,72.50
2022-08-27T20:16:26.910Z,71.20
2022-08-27T20:18:55.560Z,71.00
2022-08-27T20:21:23.763Z,71.80
2022-08-27T20:23:50.194Z,71.20
2022-08-27T20:26:16.683Z,72.80
2022-08-27T20:28:43.602Z,71.70
2022-08-27T20:31:10.282Z,71.80
2022-08-27T20:33:36.775Z,70.40
2022-08-27T20:36:03.266Z,72.20
2022-08-27T20:38:29.711Z,70.50
2022-08-27T20:40:56.184Z,70.80
2022-08-27T20:43:22.661Z,70.80
2022-08-27T20:45:49.190Z,70.60
2022-08-27T20:48:15.678Z,71.50
2022-08-27T20:50:42.160Z,71.00
2022-08-27T20:53:08.632Z,70.30
2022-08-27T20:55:35.081Z,71.10
2022-08-27T20:58:06.334Z,69.60
2022-08-27T21:00:33.299Z,70.40
2022-08-27T21:02:59.791Z,70.60
2022-08-27T21:05:26.255Z,71.70
2022-08-27T21:07:52.738Z,71.30
2022-08-27T21:10:19.223Z,70.80
2022-08-27T21:12:45.708Z,69.50
2022-08-27T21:15:12.335Z,71.10
2022-08-27T21:17:38.950Z,70.30
2022-08-27T21:20:05.418Z,70.20
2022-08-27T21:22:31.870Z,71.70
2022-08-27T21:24:58.327Z,70.40
2022-08-27T21:27:24.821Z,70.70
2022-08-27T21:29:51.429Z,70.60
2022-08-27T21:32:17.887Z,69.30
2022-08-27T21:34:44.331Z,69.10
2022-08-27T21:37:10.803Z,69.40
2022-08-27T21:39:37.240Z,69.80
2022-08-27T21:42:03.684Z,70.30
2022-08-27T21:44:30.163Z,69.40
2022-08-27T21:46:56.704Z,69.30
2022-08-27T21:49:23.190Z,69.70
2022-08-27T21:51:49.685Z,69.30
2022-08-27T21:54:16.260Z,68.80
2022-08-27T21:56:43.115Z,68.90
2022-08-27T21:59:09.555Z,69.20
2022-08-27T22:01:36.308Z,68.00
2022-08-27T22:04:02.775Z,68.40
2022-08-27T22:06:29.215Z,68.50
2022-08-27T22:08:55.649Z,69.20
2022-08-27T22:11:24.218Z,67.40
2022-08-27T22:13:50.765Z,68.10
2022-08-27T22:16:17.280Z,68.50
2022-08-27T22:18:43.851Z,68.90
2022-08-27T22:21:10.313Z,69.30
2022-08-27T22:23:36.745Z,69.20
2022-08-27T22:26:03.208Z,69.40
2022-08-27T22:28:29.648Z,68.50
2022-08-27T22:30:56.105Z,68.10
2022-08-27T22:33:22.566Z,67.80
2022-08-27T22:35:49.011Z,68.40
2022-08-27T22:38:15.495Z,67.80
2022-08-27T22:40:41.973Z,67.70
2022-08-27T22:43:08.524Z,68.50
2022-08-27T22:45:34.980Z,68.20
2022-08-27T22:48:01.416Z,68.90
2022-08-27T22:50:27.878Z,68.50
2022-08-27T22:52:54.361Z,68.10
2022-08-27T22:55:20.822Z,67.50
2022-08-27T22:57:47.269Z,67.60
2022-08-27T23:00:13.727Z,68.00
2022-08-27T23:02:40.163Z,68.00
2022-08-27T23:05:06.969Z,68.70
2022-08-27T23:07:33.565Z,68.00
2022-08-27T23:10:00.060Z,67.90
2022-08-27T23:12:26.808Z,66.80
2022-08-27T23:14:53.259Z,66.40
2022-08-27T23:17:19.713Z,65.50
2022-08-27T23:19:46.150Z,66.40
2022-08-27T23:22:12.601Z,66.20
2022-08-27T23:24:39.050Z,65.90
2022-08-27T23:27:05.504Z,66.50
2022-08-27T23:29:31.949Z,66.40
2022-08-27T23:31:58.413Z,66.80
2022-08-27T23:34:24.850Z,66.50
2022-08-27T23:36:51.303Z,66.20
2022-08-27T23:39:17.742Z,66.60
2022-08-27T23:41:44.186Z,66.30
2022-08-27T23:44:10.619Z,65.70
2022-08-27T23:46:37.150Z,66.50
2022-08-27T23:49:03.634Z,67.10
2022-08-27T23:51:30.079Z,66.10
2022-08-27T23:53:56.505Z,67.10
2022-08-27T23:56:23.071Z,65.90
2022-08-27T23:58:56.639Z,66.20
